createdAt,value
2023-04-18T00:13:13.895Z,100.00
2023-04-18T00:33:15.668Z,100.00
2023-04-18T00:53:17.512Z,100.00
2023-04-18T01:13:19.606Z,100.00
2023-04-18T01:33:21.600Z,100.00
2023-04-18T01:53:23.609Z,100.00
2023-04-18T02:13:25.514Z,100.00
2023-04-18T02:33:46.106Z,100.00
2023-04-18T02:54:06.643Z,100.00
2023-04-18T03:14:27.051Z,100.00
2023-04-18T03:34:49.755Z,100.00
2023-04-18T03:55:10.169Z,100.00
2023-04-18T04:15:30.710Z,100.00
2023-04-18T04:35:39.407Z,100.00
2023-04-18T04:55:42.531Z,100.00
2023-04-18T05:15:44.972Z,100.00
2023-04-18T05:35:49.097Z,100.00
2023-04-18T05:55:50.984Z,100.00
2023-04-18T06:15:53.155Z,100.00
2023-04-18T06:35:55.149Z,100.00
2023-04-18T06:55:57.085Z,100.00
2023-04-18T07:15:59.082Z,100.00
2023-04-18T07:36:02.051Z,100.00
2023-04-18T07:56:03.810Z,98.40
2023-04-18T08:16:05.808Z,97.84
2023-04-18T08:36:07.618Z,100.00
2023-04-18T08:56:10.780Z,99.72
2023-04-18T09:16:12.749Z,99.00
2023-04-18T09:36:16.082Z,96.99
2023-04-18T09:56:20.099Z,93.71
2023-04-18T10:16:21.909Z,96.54
2023-04-18T10:36:26.851Z,99.87
2023-04-18T10:56:29.035Z,100.00
2023-04-18T11:16:32.720Z,100.00
2023-04-18T11:36:34.725Z,98.74
2023-04-18T12:16:51.820Z,87.41
2023-04-18T12:57:28.637Z,85.79
2023-04-18T13:38:55.478Z,90.35
2023-04-18T14:19:20.121Z,94.04
2023-04-18T14:39:32.230Z,93.79
2023-04-18T15:20:28.941Z,99.09
2023-04-18T15:40:30.718Z,100.00
2023-04-18T16:00:35.549Z,100.00
2023-04-18T18:45:21.287Z,100.00
2023-04-18T21:07:52.053Z,100.00
2023-04-18T21:48:13.240Z,94.69
2023-04-18T22:08:26.168Z,97.21
2023-04-18T22:28:41.770Z,84.86
2023-04-18T22:48:45.712Z,85.78
2023-04-18T23:08:49.304Z,88.44
2023-04-18T23:29:13.636Z,92.86
2023-04-18T23:49:21.130Z,99.00
